Terminal Aerodrome Forecast
Issued by NWS Jacksonville, FL

Home | Current Version | Previous Version | Text Only | Print | Product List | Glossary On
Versions: 1 2 3 4 5 6 7 8 9 10 11 12 13 14
000
FTUS42 KJAX 040520
TAFSSI
TAF
KSSI 040520Z 0406/0506 11004KT P6SM SKC
     FM041500 08013G20KT P6SM SCT040
     FM050100 08010KT P6SM SCT030=

USA.gov is the U.S. government's official web portal to all federal, state and local government web resources and services.